Archival Weather

Yakutsk

Yakutsk, Russia (UEEE)

Report from: Monday, February 6, 2023 10:00 PM JST
Current time: Monday, June 17, 2024 8:11 PM JST

Current weather – Weather history – Daily summaries
Weather forecast

Present weatherFog
Temperature-44.0°C (-47.2°F)
Wind chill-53.7°C (-64.7°F)
Dew point-48.0°C (-54.4°F)
Winds 3.9 kts (2 m/s, 4.5 mph) Northwest (320°)
Visibility1476.4 ft. (450 m)
Altimeter30.30 in.Hg (1026 mB)
Precip. events QF 12:41 AM
Relative humidity64 %
Density altitude-8,473 ft. (-2,583 m)
Remarks No significant changes expected in the next two hours
Flight conditions Low Instrument Meteorological Conditions
Raw dataUEEE 061300Z 32002MPS 0450 0200SW R23L/1200U FG NSC M44/M48 Q1026 R23L/490150 NOSIG RMK QFE761
An error has occurred. This application may no longer respond until reloaded. Reload 🗙